Time;durP1;ratioP1;P1;durP2;ratioP2;P2;SDS_P1;SDS_P2;PMS_P1;PMS_P2;Temp;Humidity;BMP_temperature;BMP_pressure;BME280_temperature;BME280_humidity;BME280_pressure;Samples;Min_cycle;Max_cycle;Signal;HPM_P1;HPM_P2
2023/11/14 00:00:19;;;;;;;;;;;12.60;95.00;;;;;;4934223;29;19926;-87
2023/11/14 00:02:45;;;;;;;;;;;12.60;95.10;;;;;;4941709;29;19911;-87
2023/11/14 00:05:10;;;;;;;;;;;12.60;95.20;;;;;;4934363;29;19969;-87
2023/11/14 00:07:36;;;;;;;;;;;12.60;95.30;;;;;;4939295;29;19966;-87
2023/11/14 00:10:03;;;;;;;;;;;12.60;95.50;;;;;;4938761;29;20266;-87
2023/11/14 00:12:28;;;;;;;;;;;12.60;95.50;;;;;;4935197;29;19910;-86
2023/11/14 00:14:54;;;;;;;;;;;12.60;95.60;;;;;;4931594;29;20004;-86
2023/11/14 00:17:19;;;;;;;;;;;12.60;95.60;;;;;;4933224;29;19922;-87
2023/11/14 00:19:45;;;;;;;;;;;12.60;95.70;;;;;;4934143;29;20014;-87
2023/11/14 00:22:14;;;;;;;;;;;12.60;95.80;;;;;;4929176;29;20318;-86
2023/11/14 00:24:39;;;;;;;;;;;12.60;95.90;;;;;;4932520;29;19911;-86
2023/11/14 00:27:05;;;;;;;;;;;12.60;96.00;;;;;;4936987;29;19911;-84
2023/11/14 00:29:30;;;;;;;;;;;12.50;96.00;;;;;;4929604;29;19915;-88
2023/11/14 00:31:56;;;;;;;;;;;12.60;96.00;;;;;;4930143;29;20423;-87
2023/11/14 00:34:22;;;;;;;;;;;12.60;96.10;;;;;;4927551;29;19929;-86
2023/11/14 00:36:47;;;;;;;;;;;12.60;96.20;;;;;;4928931;29;19997;-85
2023/11/14 00:39:16;;;;;;;;;;;12.60;96.20;;;;;;4928576;29;19911;-86
2023/11/14 00:41:43;;;;;;;;;;;12.60;96.20;;;;;;4941850;28;19911;-86
2023/11/14 00:44:08;;;;;;;;;;;12.60;96.20;;;;;;4926277;29;20297;-85
2023/11/14 00:46:34;;;;;;;;;;;12.60;96.10;;;;;;4929232;29;20026;-86
2023/11/14 00:49:00;;;;;;;;;;;12.70;96.20;;;;;;4934349;29;20539;-85
2023/11/14 00:51:26;;;;;;;;;;;12.70;96.10;;;;;;4925331;29;19919;-83
2023/11/14 00:53:51;;;;;;;;;;;12.70;96.10;;;;;;4922289;29;20360;-86
2023/11/14 00:56:17;;;;;;;;;;;12.70;96.00;;;;;;4921824;29;19929;-86
2023/11/14 00:58:42;;;;;;;;;;;12.80;95.90;;;;;;4930800;29;19962;-85
2023/11/14 01:01:08;;;;;;;;;;;12.80;95.80;;;;;;4927132;29;19911;-85
2023/11/14 01:03:34;;;;;;;;;;;12.80;95.70;;;;;;4926527;29;19918;-84
2023/11/14 01:06:00;;;;;;;;;;;12.80;95.60;;;;;;4924508;29;19911;-84
2023/11/14 01:08:25;;;;;;;;;;;12.90;95.60;;;;;;4940374;29;19911;-84
2023/11/14 01:10:52;;;;;;;;;;;12.90;95.50;;;;;;4921507;29;19915;-83
2023/11/14 01:13:18;;;;;;;;;;;12.90;95.40;;;;;;4923841;29;19959;-84
2023/11/14 01:15:44;;;;;;;;;;;12.90;95.40;;;;;;4931419;29;20652;-84
2023/11/14 01:18:10;;;;;;;;;;;12.90;95.30;;;;;;4933081;29;19954;-84
2023/11/14 01:20:35;;;;;;;;;;;12.90;95.30;;;;;;4938219;28;19950;-84
2023/11/14 01:23:01;;;;;;;;;;;12.90;95.20;;;;;;4929729;29;19985;-84
2023/11/14 01:25:26;;;;;;;;;;;12.90;95.30;;;;;;4924428;29;19926;-84
2023/11/14 01:27:52;;;;;;;;;;;12.90;95.30;;;;;;4930094;29;19911;-83
2023/11/14 01:30:17;;;;;;;;;;;12.90;95.20;;;;;;4929309;29;19911;-83
2023/11/14 01:32:43;;;;;;;;;;;12.90;95.10;;;;;;4930858;29;19910;-82
2023/11/14 01:35:09;;;;;;;;;;;13.00;95.00;;;;;;4931996;29;19950;-83
2023/11/14 01:37:34;;;;;;;;;;;13.00;95.00;;;;;;4927168;29;19919;-84
2023/11/14 01:40:00;;;;;;;;;;;13.00;94.90;;;;;;4923035;29;20354;-84
2023/11/14 01:42:26;;;;;;;;;;;13.00;94.70;;;;;;4929766;29;19986;-83
2023/11/14 01:44:51;;;;;;;;;;;13.00;94.60;;;;;;4928519;28;19910;-84
2023/11/14 01:47:17;;;;;;;;;;;13.00;94.60;;;;;;4926056;29;20294;-84
2023/11/14 01:49:43;;;;;;;;;;;13.00;94.50;;;;;;4922986;29;19966;-84
2023/11/14 01:52:10;;;;;;;;;;;13.00;94.50;;;;;;4921712;29;19995;-84
2023/11/14 01:54:36;;;;;;;;;;;13.00;94.50;;;;;;4930718;29;20795;-83
2023/11/14 01:57:02;;;;;;;;;;;13.10;94.50;;;;;;4929704;29;19923;-83
2023/11/14 01:59:27;;;;;;;;;;;13.10;94.50;;;;;;4928107;29;20390;-83
2023/11/14 02:01:53;;;;;;;;;;;13.10;94.50;;;;;;4930815;29;19919;-83
2023/11/14 02:04:20;;;;;;;;;;;13.10;94.50;;;;;;4926281;29;19921;-84
2023/11/14 02:06:47;;;;;;;;;;;13.10;94.40;;;;;;4923484;29;19911;-83
2023/11/14 02:09:12;;;;;;;;;;;13.00;94.40;;;;;;4930325;29;20413;-83
2023/11/14 02:11:41;;;;;;;;;;;13.00;94.40;;;;;;4932751;29;19911;-83
2023/11/14 02:14:08;;;;;;;;;;;13.10;94.40;;;;;;4932397;29;19915;-83
2023/11/14 02:16:43;;;;;;;;;;;13.00;94.40;;;;;;4930104;29;19919;-83
2023/11/14 02:19:09;;;;;;;;;;;13.10;94.50;;;;;;4933031;29;19914;-83
2023/11/14 02:21:34;;;;;;;;;;;13.10;94.50;;;;;;4920831;29;19911;-83
2023/11/14 02:24:01;;;;;;;;;;;13.00;94.60;;;;;;4929393;29;20380;-83
2023/11/14 02:26:26;;;;;;;;;;;13.00;94.60;;;;;;4926962;28;19911;-85
2023/11/14 02:28:55;;;;;;;;;;;13.00;94.70;;;;;;4926253;29;20058;-83
2023/11/14 02:31:20;;;;;;;;;;;13.00;94.80;;;;;;4925940;28;19910;-83
2023/11/14 02:33:46;;;;;;;;;;;13.00;94.90;;;;;;4926984;29;20479;-83
2023/11/14 02:36:11;;;;;;;;;;;13.00;94.90;;;;;;4938999;28;19933;-84
2023/11/14 02:38:37;;;;;;;;;;;13.00;95.00;;;;;;4931474;29;20422;-83
2023/11/14 02:41:02;;;;;;;;;;;13.00;95.00;;;;;;4925389;29;19910;-83
2023/11/14 02:43:28;;;;;;;;;;;13.00;95.10;;;;;;4930805;29;20298;-83
2023/11/14 02:45:53;;;;;;;;;;;12.90;95.10;;;;;;4929195;29;20049;-83
2023/11/14 02:48:19;;;;;;;;;;;13.00;95.30;;;;;;4929192;29;20270;-82
2023/11/14 02:50:51;;;;;;;;;;;12.90;95.30;;;;;;4925611;28;20005;-83
2023/11/14 02:53:17;;;;;;;;;;;13.00;95.40;;;;;;4942600;28;19992;-83
2023/11/14 02:55:44;;;;;;;;;;;13.00;95.40;;;;;;4922522;29;19965;-83
2023/11/14 02:58:10;;;;;;;;;;;13.00;95.40;;;;;;4920960;29;19911;-83
2023/11/14 03:00:35;;;;;;;;;;;13.00;95.40;;;;;;4930167;29;19911;-84
2023/11/14 03:03:01;;;;;;;;;;;13.00;95.30;;;;;;4923755;29;19918;-83
2023/11/14 03:05:26;;;;;;;;;;;13.00;95.20;;;;;;4943533;28;19922;-84
2023/11/14 03:07:52;;;;;;;;;;;13.10;95.20;;;;;;4931213;29;19911;-84
2023/11/14 03:10:18;;;;;;;;;;;13.10;95.20;;;;;;4923950;28;19966;-84
2023/11/14 03:12:43;;;;;;;;;;;13.10;95.30;;;;;;4931279;29;20250;-83
2023/11/14 03:15:09;;;;;;;;;;;13.10;95.30;;;;;;4920618;29;20310;-83
2023/11/14 03:17:35;;;;;;;;;;;13.10;95.30;;;;;;4929273;29;19925;-84
2023/11/14 03:20:00;;;;;;;;;;;13.10;95.30;;;;;;4928495;29;19915;-84
2023/11/14 03:22:27;;;;;;;;;;;13.10;95.30;;;;;;4923551;29;20454;-83
2023/11/14 03:24:53;;;;;;;;;;;13.10;95.30;;;;;;4929827;29;19920;-84
2023/11/14 03:27:18;;;;;;;;;;;13.10;95.30;;;;;;4931327;29;19911;-83
2023/11/14 03:29:44;;;;;;;;;;;13.10;95.30;;;;;;4931768;29;19910;-84
2023/11/14 03:32:09;;;;;;;;;;;13.10;95.30;;;;;;4928422;29;19911;-85
2023/11/14 03:34:35;;;;;;;;;;;13.10;95.30;;;;;;4926526;29;19933;-85
2023/11/14 03:37:01;;;;;;;;;;;13.10;95.40;;;;;;4928847;29;20017;-85
2023/11/14 03:39:28;;;;;;;;;;;13.00;95.50;;;;;;4928861;29;20479;-85
2023/11/14 03:41:55;;;;;;;;;;;13.00;95.60;;;;;;4925597;29;20330;-85
2023/11/14 03:44:20;;;;;;;;;;;13.00;95.70;;;;;;4928201;29;20013;-85
2023/11/14 03:46:46;;;;;;;;;;;13.00;95.80;;;;;;4923285;29;20362;-86
2023/11/14 03:49:11;;;;;;;;;;;13.00;95.80;;;;;;4927635;29;19914;-86
2023/11/14 03:51:37;;;;;;;;;;;13.00;95.90;;;;;;4927050;29;19954;-85
2023/11/14 03:54:02;;;;;;;;;;;13.00;96.00;;;;;;4924023;29;19937;-85
2023/11/14 03:56:28;;;;;;;;;;;13.00;96.00;;;;;;4927744;29;19923;-85
2023/11/14 03:58:53;;;;;;;;;;;13.00;96.10;;;;;;4924589;29;19998;-85
2023/11/14 04:01:19;;;;;;;;;;;13.00;96.10;;;;;;4925507;29;19911;-85
2023/11/14 04:03:44;;;;;;;;;;;13.00;96.10;;;;;;4924181;29;19910;-85
2023/11/14 04:06:10;;;;;;;;;;;13.00;96.10;;;;;;4928250;28;20001;-85
2023/11/14 04:08:36;;;;;;;;;;;13.00;96.10;;;;;;4932618;28;19966;-84
2023/11/14 04:11:02;;;;;;;;;;;12.90;96.20;;;;;;4926311;28;19915;-86
2023/11/14 04:13:28;;;;;;;;;;;12.90;96.30;;;;;;4929806;29;20002;-87
2023/11/14 04:15:53;;;;;;;;;;;13.00;96.40;;;;;;4927520;29;19954;-86
2023/11/14 04:18:18;;;;;;;;;;;12.90;96.40;;;;;;4925539;29;19911;-85
2023/11/14 04:20:45;;;;;;;;;;;12.90;96.40;;;;;;4924937;29;19966;-86
2023/11/14 04:23:11;;;;;;;;;;;12.90;96.50;;;;;;4921501;29;20005;-86
2023/11/14 04:25:37;;;;;;;;;;;12.90;96.50;;;;;;4924251;29;20438;-86
2023/11/14 04:28:02;;;;;;;;;;;13.00;96.40;;;;;;4927159;29;19969;-86
2023/11/14 04:30:28;;;;;;;;;;;13.00;96.30;;;;;;4926129;29;19915;-86
2023/11/14 04:32:53;;;;;;;;;;;13.00;96.30;;;;;;4928208;29;19911;-85
2023/11/14 04:35:19;;;;;;;;;;;13.00;96.30;;;;;;4926706;29;19971;-85
2023/11/14 04:37:47;;;;;;;;;;;13.00;96.20;;;;;;4930186;29;19997;-85
2023/11/14 04:40:12;;;;;;;;;;;13.00;96.10;;;;;;4927807;29;20005;-84
2023/11/14 04:42:38;;;;;;;;;;;13.00;96.10;;;;;;4925785;29;20058;-84
2023/11/14 04:45:04;;;;;;;;;;;13.00;96.00;;;;;;4923007;29;19911;-86
2023/11/14 04:47:29;;;;;;;;;;;13.00;96.00;;;;;;4926446;29;20023;-85
2023/11/14 04:49:55;;;;;;;;;;;13.00;95.90;;;;;;4915431;29;19910;-86
2023/11/14 04:52:21;;;;;;;;;;;13.00;95.80;;;;;;4928245;29;19914;-85
2023/11/14 04:54:46;;;;;;;;;;;13.00;95.80;;;;;;4925450;29;20293;-84
2023/11/14 04:57:12;;;;;;;;;;;13.00;95.70;;;;;;4928869;29;20393;-85
2023/11/14 04:59:38;;;;;;;;;;;13.00;95.70;;;;;;4918722;29;20387;-85
2023/11/14 05:02:03;;;;;;;;;;;13.00;95.40;;;;;;4944548;29;19922;-84
2023/11/14 05:04:30;;;;;;;;;;;13.00;95.40;;;;;;4928409;29;19910;-85
2023/11/14 05:06:56;;;;;;;;;;;13.00;95.40;;;;;;4933479;29;19915;-85
2023/11/14 05:09:21;;;;;;;;;;;13.10;95.40;;;;;;4932361;29;19911;-85
2023/11/14 05:11:47;;;;;;;;;;;13.10;95.40;;;;;;4935372;29;19917;-84
2023/11/14 05:14:12;;;;;;;;;;;13.10;95.40;;;;;;4953159;28;19935;-85
2023/11/14 05:16:41;;;;;;;;;;;13.10;95.40;;;;;;4923054;28;19919;-85
2023/11/14 05:19:07;;;;;;;;;;;13.10;95.30;;;;;;4940788;29;19977;-85
2023/11/14 05:21:33;;;;;;;;;;;13.20;95.30;;;;;;4928746;29;20009;-85
2023/11/14 05:23:59;;;;;;;;;;;13.10;95.20;;;;;;4929246;29;20037;-83
2023/11/14 05:26:24;;;;;;;;;;;13.20;95.10;;;;;;4933536;29;20380;-84
2023/11/14 05:28:49;;;;;;;;;;;13.10;95.10;;;;;;4934359;29;20074;-85
2023/11/14 05:31:15;;;;;;;;;;;13.20;95.10;;;;;;4930805;29;19910;-84
2023/11/14 05:33:41;;;;;;;;;;;13.20;95.10;;;;;;4931751;29;19911;-84
2023/11/14 05:36:06;;;;;;;;;;;13.20;95.00;;;;;;4931599;29;19997;-84
2023/11/14 05:38:32;;;;;;;;;;;13.10;94.90;;;;;;4932105;29;19931;-84
2023/11/14 05:40:58;;;;;;;;;;;13.20;95.00;;;;;;4930362;29;20546;-84
2023/11/14 05:43:28;;;;;;;;;;;13.20;94.90;;;;;;4934664;29;19911;-84
2023/11/14 05:45:56;;;;;;;;;;;13.20;94.80;;;;;;4931165;29;19923;-82
2023/11/14 05:48:22;;;;;;;;;;;13.20;94.80;;;;;;4928908;29;19918;-83
2023/11/14 05:50:48;;;;;;;;;;;13.20;94.80;;;;;;4927324;29;19911;-83
2023/11/14 05:53:14;;;;;;;;;;;13.30;94.80;;;;;;4921626;29;20123;-84
2023/11/14 05:55:40;;;;;;;;;;;13.30;94.70;;;;;;4923988;29;19915;-84
2023/11/14 05:58:05;;;;;;;;;;;13.20;94.70;;;;;;4920839;29;19911;-84
2023/11/14 06:00:32;;;;;;;;;;;13.30;94.70;;;;;;4922059;29;19919;-84
2023/11/14 06:02:57;;;;;;;;;;;13.20;94.70;;;;;;4933046;29;19915;-84
2023/11/14 06:05:23;;;;;;;;;;;13.30;94.70;;;;;;4926893;29;20417;-84
2023/11/14 06:07:48;;;;;;;;;;;13.30;94.70;;;;;;4944620;28;19911;-84
2023/11/14 06:10:15;;;;;;;;;;;13.30;94.70;;;;;;4935913;29;19969;-84
2023/11/14 06:12:41;;;;;;;;;;;13.30;94.70;;;;;;4932352;29;19979;-83
2023/11/14 06:15:07;;;;;;;;;;;13.30;94.70;;;;;;4920005;29;20338;-84
2023/11/14 06:17:33;;;;;;;;;;;13.30;94.70;;;;;;4929676;29;19919;-84
2023/11/14 06:19:58;;;;;;;;;;;13.30;94.70;;;;;;4936043;29;19966;-84
2023/11/14 06:22:24;;;;;;;;;;;13.30;94.70;;;;;;4929094;29;19957;-84
2023/11/14 06:24:49;;;;;;;;;;;13.30;94.70;;;;;;4931878;29;20006;-84
2023/11/14 06:27:15;;;;;;;;;;;13.30;94.70;;;;;;4923000;29;19998;-84
2023/11/14 06:29:41;;;;;;;;;;;13.30;94.60;;;;;;4922746;29;20310;-85
2023/11/14 06:32:08;;;;;;;;;;;13.30;94.60;;;;;;4928183;29;19918;-87
2023/11/14 06:34:33;;;;;;;;;;;13.30;94.90;;;;;;4927047;29;19918;-86
2023/11/14 06:36:59;;;;;;;;;;;13.30;94.60;;;;;;4928679;29;19919;-85
2023/11/14 06:39:24;;;;;;;;;;;13.30;94.60;;;;;;4926477;29;19922;-84
2023/11/14 06:41:50;;;;;;;;;;;13.30;94.60;;;;;;4927028;29;20013;-86
2023/11/14 06:44:18;;;;;;;;;;;13.30;94.60;;;;;;4927998;29;20042;-86
2023/11/14 06:46:47;;;;;;;;;;;13.30;94.60;;;;;;4921402;29;19921;-86
2023/11/14 06:49:12;;;;;;;;;;;13.30;94.60;;;;;;4926843;29;20378;-86
2023/11/14 06:51:38;;;;;;;;;;;13.30;94.60;;;;;;4930111;29;19938;-85
2023/11/14 06:54:03;;;;;;;;;;;13.30;94.60;;;;;;4935914;29;20362;-86
2023/11/14 06:56:29;;;;;;;;;;;13.30;94.60;;;;;;4929033;29;19950;-85
2023/11/14 06:58:54;;;;;;;;;;;13.30;94.60;;;;;;4932578;29;19914;-85
2023/11/14 07:01:20;;;;;;;;;;;13.30;94.60;;;;;;4931187;29;19985;-85
2023/11/14 07:03:46;;;;;;;;;;;13.20;94.50;;;;;;4929142;29;19914;-85
2023/11/14 07:06:12;;;;;;;;;;;13.30;94.60;;;;;;4918385;29;20382;-85
2023/11/14 07:08:39;;;;;;;;;;;13.20;94.60;;;;;;4924707;29;19966;-85
2023/11/14 07:11:05;;;;;;;;;;;13.20;94.70;;;;;;4928595;29;19918;-84
2023/11/14 07:13:30;;;;;;;;;;;13.10;94.70;;;;;;4925226;29;20285;-84
2023/11/14 07:15:56;;;;;;;;;;;13.20;94.80;;;;;;4930876;29;20005;-85
2023/11/14 07:18:21;;;;;;;;;;;13.10;94.90;;;;;;4938812;29;19918;-85
2023/11/14 07:20:48;;;;;;;;;;;13.10;95.00;;;;;;4934231;29;20297;-85
2023/11/14 07:23:14;;;;;;;;;;;13.10;95.10;;;;;;4926154;29;19914;-85
2023/11/14 07:25:43;;;;;;;;;;;13.10;95.20;;;;;;4921739;29;19919;-83
2023/11/14 07:28:12;;;;;;;;;;;13.10;95.20;;;;;;4927605;29;19937;-84
2023/11/14 07:30:37;;;;;;;;;;;13.10;95.20;;;;;;4921477;29;19962;-83
2023/11/14 07:33:03;;;;;;;;;;;13.10;95.60;;;;;;4921010;29;20009;-85
2023/11/14 07:35:29;;;;;;;;;;;13.10;95.40;;;;;;4930261;29;20002;-85
2023/11/14 07:37:55;;;;;;;;;;;13.10;95.40;;;;;;4929884;29;19922;-84
2023/11/14 07:40:21;;;;;;;;;;;13.10;95.40;;;;;;4932655;29;19938;-84
2023/11/14 07:42:48;;;;;;;;;;;13.10;95.40;;;;;;4932297;29;19918;-84
2023/11/14 07:45:14;;;;;;;;;;;13.10;95.50;;;;;;4941809;28;19917;-84
2023/11/14 07:47:40;;;;;;;;;;;13.10;95.50;;;;;;4928303;29;20386;-84
2023/11/14 07:50:06;;;;;;;;;;;13.10;95.50;;;;;;4921758;29;19914;-84
2023/11/14 07:52:32;;;;;;;;;;;13.10;95.60;;;;;;4934228;29;20399;-84
2023/11/14 07:55:02;;;;;;;;;;;13.10;95.60;;;;;;4933754;29;20005;-84
2023/11/14 07:57:28;;;;;;;;;;;13.10;95.60;;;;;;4932780;29;19922;-85
2023/11/14 07:59:55;;;;;;;;;;;13.10;95.60;;;;;;4937198;29;20290;-84
2023/11/14 08:02:20;;;;;;;;;;;13.10;95.50;;;;;;4927425;29;19917;-84
2023/11/14 08:04:46;;;;;;;;;;;13.20;95.50;;;;;;4928962;29;20009;-84
2023/11/14 08:07:11;;;;;;;;;;;13.10;95.60;;;;;;4942561;28;20306;-83
2023/11/14 08:09:37;;;;;;;;;;;13.20;95.60;;;;;;4949373;28;20373;-85
2023/11/14 08:12:03;;;;;;;;;;;13.20;95.60;;;;;;4928776;29;19919;-83
2023/11/14 08:14:29;;;;;;;;;;;13.20;95.60;;;;;;4922305;29;19911;-84
2023/11/14 08:16:54;;;;;;;;;;;13.20;95.60;;;;;;4922534;29;19926;-84
2023/11/14 08:19:20;;;;;;;;;;;13.20;95.60;;;;;;4925672;29;19911;-84
2023/11/14 08:21:45;;;;;;;;;;;13.30;95.60;;;;;;4925834;28;19911;-83
2023/11/14 08:24:11;;;;;;;;;;;13.30;95.60;;;;;;4926508;29;19911;-84
2023/11/14 08:26:36;;;;;;;;;;;13.30;95.60;;;;;;4916618;29;19911;-84
2023/11/14 08:29:02;;;;;;;;;;;13.30;95.60;;;;;;4926210;29;19911;-84
2023/11/14 08:31:29;;;;;;;;;;;13.30;95.50;;;;;;4942889;28;19970;-84
2023/11/14 08:33:55;;;;;;;;;;;13.30;95.60;;;;;;4924372;29;19918;-84
2023/11/14 08:36:20;;;;;;;;;;;13.30;95.60;;;;;;4927276;29;20053;-84
2023/11/14 08:38:46;;;;;;;;;;;13.30;95.60;;;;;;4918220;29;19994;-84
2023/11/14 08:41:11;;;;;;;;;;;13.30;95.70;;;;;;4924121;28;19911;-84
2023/11/14 08:43:37;;;;;;;;;;;13.30;95.80;;;;;;4932076;29;19993;-84
2023/11/14 08:46:03;;;;;;;;;;;13.30;95.80;;;;;;4927428;29;19915;-84
2023/11/14 08:48:28;;;;;;;;;;;13.30;95.90;;;;;;4930675;29;19911;-84
2023/11/14 08:50:54;;;;;;;;;;;13.30;95.90;;;;;;4922858;29;19917;-84
2023/11/14 08:53:19;;;;;;;;;;;13.30;95.90;;;;;;4927221;29;20294;-84
2023/11/14 08:55:45;;;;;;;;;;;13.30;95.90;;;;;;4932766;29;19918;-84
2023/11/14 08:58:11;;;;;;;;;;;13.40;95.90;;;;;;4926394;29;19919;-84
2023/11/14 09:00:37;;;;;;;;;;;13.30;95.90;;;;;;4933847;29;19914;-82
2023/11/14 09:03:03;;;;;;;;;;;13.30;95.90;;;;;;4931466;29;20310;-84
2023/11/14 09:05:29;;;;;;;;;;;13.30;96.00;;;;;;4932027;29;19911;-83
2023/11/14 09:07:54;;;;;;;;;;;13.20;96.10;;;;;;4926901;29;19915;-84
2023/11/14 09:10:20;;;;;;;;;;;13.20;96.20;;;;;;4925039;29;19959;-83
2023/11/14 09:12:45;;;;;;;;;;;13.20;96.30;;;;;;4932206;29;20595;-83
2023/11/14 09:15:13;;;;;;;;;;;13.20;96.30;;;;;;4930213;29;20001;-82
2023/11/14 09:17:39;;;;;;;;;;;13.20;96.30;;;;;;4931988;29;19922;-82
2023/11/14 09:20:05;;;;;;;;;;;13.20;96.30;;;;;;4933350;29;19910;-82
2023/11/14 09:22:31;;;;;;;;;;;13.20;96.30;;;;;;4932626;29;19921;-83
2023/11/14 09:24:56;;;;;;;;;;;13.20;96.30;;;;;;4923768;29;19911;-83
2023/11/14 09:27:25;;;;;;;;;;;13.20;96.40;;;;;;4945797;28;19917;-82
2023/11/14 09:29:50;;;;;;;;;;;13.20;96.50;;;;;;4934613;29;20584;-82
2023/11/14 09:32:19;;;;;;;;;;;13.20;96.60;;;;;;4929896;29;20021;-82
2023/11/14 09:34:45;;;;;;;;;;;13.30;96.60;;;;;;4931961;29;19915;-82
2023/11/14 09:37:11;;;;;;;;;;;13.30;96.50;;;;;;4929249;29;20089;-82
2023/11/14 09:39:37;;;;;;;;;;;13.30;96.50;;;;;;4917421;29;20017;-82
2023/11/14 09:42:04;;;;;;;;;;;13.30;96.50;;;;;;4928105;29;19911;-82
2023/11/14 09:44:29;;;;;;;;;;;13.40;96.60;;;;;;4921076;29;19915;-82
2023/11/14 09:46:55;;;;;;;;;;;13.40;96.60;;;;;;4924259;29;19969;-82
2023/11/14 09:49:20;;;;;;;;;;;13.40;96.60;;;;;;4932673;29;19965;-83
2023/11/14 09:51:47;;;;;;;;;;;13.40;96.60;;;;;;4927809;29;19911;-82
2023/11/14 09:54:15;;;;;;;;;;;13.40;96.60;;;;;;4929782;29;19911;-82
2023/11/14 09:56:44;;;;;;;;;;;13.50;96.60;;;;;;4927785;29;19918;-81
2023/11/14 09:59:10;;;;;;;;;;;13.50;96.60;;;;;;4922315;29;19951;-82
2023/11/14 10:01:39;;;;;;;;;;;13.50;96.60;;;;;;4926542;29;19912;-82
2023/11/14 10:04:06;;;;;;;;;;;13.60;96.60;;;;;;4932855;29;19921;-83
2023/11/14 10:06:33;;;;;;;;;;;13.60;96.60;;;;;;4926644;29;20326;-82
2023/11/14 10:08:59;;;;;;;;;;;13.60;96.60;;;;;;4928986;29;19919;-81
2023/11/14 10:11:39;;;;;;;;;;;13.60;96.50;;;;;;4931730;29;19921;-80
2023/11/14 10:14:05;;;;;;;;;;;13.60;96.50;;;;;;4925914;29;20370;-81
2023/11/14 10:16:30;;;;;;;;;;;13.70;96.40;;;;;;4923150;29;19923;-81
2023/11/14 10:18:56;;;;;;;;;;;13.70;96.40;;;;;;4926246;29;19923;-81
2023/11/14 10:21:25;;;;;;;;;;;13.70;96.30;;;;;;4925524;28;19994;-81
2023/11/14 10:23:52;;;;;;;;;;;13.80;96.30;;;;;;4925675;29;19918;-80
2023/11/14 10:26:18;;;;;;;;;;;13.80;96.30;;;;;;4926098;29;19910;-81
2023/11/14 10:29:00;;;;;;;;;;;13.80;96.10;;;;;;4929356;29;19918;-81
2023/11/14 10:31:32;;;;;;;;;;;13.90;96.00;;;;;;4929899;29;19911;-81
2023/11/14 10:33:58;;;;;;;;;;;13.90;96.00;;;;;;4927606;29;19910;-82
2023/11/14 10:36:23;;;;;;;;;;;14.00;96.00;;;;;;4920283;29;19919;-81
2023/11/14 10:39:03;;;;;;;;;;;14.10;95.90;;;;;;4927457;29;20330;-81
2023/11/14 10:41:29;;;;;;;;;;;14.10;95.70;;;;;;4932016;29;19910;-81
2023/11/14 10:43:55;;;;;;;;;;;14.20;95.40;;;;;;4933367;29;20385;-81
2023/11/14 10:46:20;;;;;;;;;;;14.30;95.30;;;;;;4926416;29;19970;-81
2023/11/14 10:48:45;;;;;;;;;;;14.30;95.00;;;;;;4929383;29;19994;-82
2023/11/14 10:51:12;;;;;;;;;;;14.30;94.80;;;;;;4922400;29;19922;-82
2023/11/14 10:53:38;;;;;;;;;;;14.30;94.70;;;;;;4924559;29;19910;-82
2023/11/14 10:56:05;;;;;;;;;;;14.30;94.50;;;;;;4928675;29;20362;-82
2023/11/14 10:58:31;;;;;;;;;;;14.30;94.40;;;;;;4916136;29;19914;-83
2023/11/14 11:00:57;;;;;;;;;;;14.30;94.20;;;;;;4914175;29;20506;-83
2023/11/14 11:03:24;;;;;;;;;;;14.40;94.20;;;;;;4923118;29;19911;-82
2023/11/14 11:05:50;;;;;;;;;;;14.40;94.20;;;;;;4921398;29;20001;-83
2023/11/14 11:08:15;;;;;;;;;;;14.40;94.20;;;;;;4926767;29;20370;-82
2023/11/14 11:10:42;;;;;;;;;;;14.40;94.00;;;;;;4925011;29;19922;-82
2023/11/14 11:13:21;;;;;;;;;;;14.40;94.00;;;;;;4925991;29;19965;-82
2023/11/14 11:15:48;;;;;;;;;;;14.40;93.80;;;;;;4930401;29;19915;-82
2023/11/14 11:18:14;;;;;;;;;;;14.40;93.70;;;;;;4929456;29;19918;-82
2023/11/14 11:20:40;;;;;;;;;;;14.40;93.60;;;;;;4927679;28;19934;-82
2023/11/14 11:23:10;;;;;;;;;;;14.40;93.60;;;;;;4917793;29;19918;-82
2023/11/14 11:25:36;;;;;;;;;;;14.40;93.60;;;;;;4929806;29;19918;-83
2023/11/14 11:28:20;;;;;;;;;;;14.40;93.40;;;;;;4927098;29;19915;-82
2023/11/14 11:31:15;;;;;;;;;;;14.40;93.40;;;;;;4936816;29;19914;-82
2023/11/14 11:33:42;;;;;;;;;;;14.40;93.50;;;;;;4921159;29;20397;-82
2023/11/14 11:36:23;;;;;;;;;;;14.50;93.40;;;;;;4921164;29;19910;-83
2023/11/14 11:38:55;;;;;;;;;;;14.50;93.40;;;;;;4918622;29;19995;-82
2023/11/14 11:41:22;;;;;;;;;;;14.50;93.40;;;;;;4939084;28;20430;-82
2023/11/14 11:44:08;;;;;;;;;;;14.60;93.40;;;;;;4930239;29;20326;-82
2023/11/14 11:46:36;;;;;;;;;;;14.70;93.40;;;;;;4872564;29;1498375;-82
2023/11/14 11:49:09;;;;;;;;;;;14.60;93.20;;;;;;4944012;28;19915;-82
2023/11/14 11:51:35;;;;;;;;;;;14.70;93.10;;;;;;4922413;29;19911;-81
2023/11/14 11:54:21;;;;;;;;;;;14.70;93.10;;;;;;4920441;29;19966;-82
2023/11/14 11:56:46;;;;;;;;;;;14.70;93.10;;;;;;4932195;29;19926;-82
2023/11/14 11:59:12;;;;;;;;;;;14.70;93.00;;;;;;4929782;29;19910;-82
2023/11/14 12:01:52;;;;;;;;;;;14.70;93.00;;;;;;4927181;29;20399;-82
2023/11/14 12:04:18;;;;;;;;;;;14.70;92.90;;;;;;4918820;29;20391;-83
2023/11/14 12:06:44;;;;;;;;;;;14.80;93.00;;;;;;4922756;29;19910;-82
2023/11/14 12:09:11;;;;;;;;;;;14.80;93.00;;;;;;4920134;29;20264;-82
2023/11/14 12:11:37;;;;;;;;;;;14.80;92.80;;;;;;4929620;29;19921;-83
2023/11/14 12:14:04;;;;;;;;;;;14.70;92.80;;;;;;4932816;29;19911;-82
2023/11/14 12:16:29;;;;;;;;;;;14.70;92.80;;;;;;4917136;29;20248;-83
2023/11/14 12:18:55;;;;;;;;;;;14.60;92.80;;;;;;4935209;29;19922;-83
2023/11/14 12:21:21;;;;;;;;;;;14.70;92.80;;;;;;4920105;28;19926;-83
2023/11/14 12:23:46;;;;;;;;;;;14.60;92.90;;;;;;4922060;29;19919;-82
2023/11/14 12:26:12;;;;;;;;;;;14.60;92.90;;;;;;4926836;29;20051;-82
2023/11/14 12:28:41;;;;;;;;;;;14.60;93.00;;;;;;4927145;29;19911;-82
2023/11/14 12:31:08;;;;;;;;;;;14.50;93.00;;;;;;4921233;29;19911;-82
2023/11/14 12:33:50;;;;;;;;;;;14.50;93.10;;;;;;4921115;29;19915;-82
2023/11/14 12:36:25;;;;;;;;;;;14.50;93.20;;;;;;4925290;29;19907;-83
2023/11/14 12:38:51;;;;;;;;;;;14.40;93.20;;;;;;4922323;29;20001;-82
2023/11/14 12:41:16;;;;;;;;;;;14.40;93.20;;;;;;4925915;29;19966;-82
2023/11/14 12:43:43;;;;;;;;;;;14.40;93.20;;;;;;4931003;29;19933;-82
2023/11/14 12:46:08;;;;;;;;;;;14.40;93.20;;;;;;4923768;29;19919;-82
2023/11/14 12:48:34;;;;;;;;;;;14.40;93.30;;;;;;4927627;29;19917;-82
2023/11/14 12:51:00;;;;;;;;;;;14.30;93.30;;;;;;4928763;29;20018;-82
2023/11/14 12:53:32;;;;;;;;;;;14.20;93.50;;;;;;4924946;29;20382;-82
2023/11/14 12:55:59;;;;;;;;;;;14.20;93.60;;;;;;4930127;29;20417;-82
2023/11/14 12:58:26;;;;;;;;;;;14.10;93.80;;;;;;4931780;29;19918;-82
2023/11/14 13:00:53;;;;;;;;;;;14.10;93.90;;;;;;4922310;29;20258;-82
2023/11/14 13:03:18;;;;;;;;;;;14.10;94.10;;;;;;4918195;29;19992;-82
2023/11/14 13:05:44;;;;;;;;;;;14.10;94.20;;;;;;4922122;29;19948;-82
2023/11/14 13:08:09;;;;;;;;;;;14.00;94.30;;;;;;4916754;29;20314;-83
2023/11/14 13:10:35;;;;;;;;;;;13.90;94.30;;;;;;4915615;29;19922;-82
2023/11/14 13:13:00;;;;;;;;;;;13.90;94.40;;;;;;4924954;29;20263;-82
2023/11/14 13:15:27;;;;;;;;;;;13.80;94.50;;;;;;4919765;29;20421;-82
2023/11/14 13:17:53;;;;;;;;;;;13.80;94.60;;;;;;4928207;29;19970;-82
2023/11/14 13:20:18;;;;;;;;;;;13.90;94.70;;;;;;4928055;29;19915;-82
2023/11/14 13:22:44;;;;;;;;;;;13.80;94.70;;;;;;4920917;29;19918;-86
2023/11/14 13:25:15;;;;;;;;;;;13.80;94.80;;;;;;4932096;29;19914;-82
2023/11/14 13:27:40;;;;;;;;;;;13.80;94.90;;;;;;4921158;29;19910;-83
2023/11/14 13:30:06;;;;;;;;;;;13.80;94.90;;;;;;4926808;29;19910;-83
2023/11/14 13:32:33;;;;;;;;;;;13.80;94.90;;;;;;4928387;29;20269;-82
2023/11/14 13:34:59;;;;;;;;;;;13.80;94.90;;;;;;4927620;29;19918;-82
2023/11/14 13:37:24;;;;;;;;;;;13.80;94.90;;;;;;4933197;28;20243;-82
2023/11/14 13:39:50;;;;;;;;;;;13.80;94.90;;;;;;4930267;29;19919;-83
2023/11/14 13:42:15;;;;;;;;;;;13.80;94.90;;;;;;4929079;29;19911;-82
2023/11/14 13:44:41;;;;;;;;;;;13.80;94.90;;;;;;4930588;29;19911;-82
2023/11/14 13:47:06;;;;;;;;;;;13.90;94.90;;;;;;4932340;29;19953;-82
2023/11/14 13:49:32;;;;;;;;;;;13.90;94.90;;;;;;4931835;29;19930;-82
2023/11/14 13:51:57;;;;;;;;;;;13.90;94.90;;;;;;4925833;29;19961;-82
2023/11/14 13:54:25;;;;;;;;;;;13.90;94.90;;;;;;4921271;29;19982;-82
2023/11/14 13:56:52;;;;;;;;;;;13.80;94.90;;;;;;4918878;29;20294;-82
2023/11/14 13:59:18;;;;;;;;;;;13.90;94.90;;;;;;4923288;29;20009;-83
2023/11/14 14:01:44;;;;;;;;;;;13.80;94.80;;;;;;4922254;29;19921;-82
2023/11/14 14:04:10;;;;;;;;;;;13.80;94.90;;;;;;4928232;29;20367;-82
2023/11/14 14:06:35;;;;;;;;;;;13.80;94.80;;;;;;4929651;29;19911;-82
2023/11/14 14:09:03;;;;;;;;;;;13.70;94.70;;;;;;4933115;29;19993;-83
2023/11/14 14:11:30;;;;;;;;;;;13.70;94.80;;;;;;4927603;29;19918;-83